createdAt,value
2022-10-20T00:03:30.916Z,21.98
2022-10-20T00:07:12.825Z,18.00
2022-10-20T00:10:56.077Z,19.45
2022-10-20T00:14:38.617Z,21.35
2022-10-20T00:18:20.898Z,16.55
2022-10-20T00:22:02.709Z,17.90
2022-10-20T00:25:44.514Z,19.33
2022-10-20T00:29:26.337Z,18.58
2022-10-20T00:33:08.228Z,20.25
2022-10-20T00:36:51.373Z,23.00
2022-10-20T00:40:33.520Z,15.20
2022-10-20T00:44:48.903Z,16.77
2022-10-20T00:48:32.134Z,19.70
2022-10-20T00:52:18.621Z,20.23
2022-10-20T00:56:01.399Z,19.88
2022-10-20T00:59:43.846Z,15.30
2022-10-20T01:03:34.978Z,19.05
2022-10-20T01:07:16.846Z,16.20
2022-10-20T01:11:10.297Z,19.60
2022-10-20T01:14:54.856Z,17.52
2022-10-20T01:19:30.572Z,15.02
2022-10-20T01:23:18.151Z,17.52
2022-10-20T01:27:11.883Z,15.18
2022-10-20T01:31:02.008Z,15.90
2022-10-20T01:34:52.934Z,19.95
2022-10-20T01:38:50.799Z,14.48
2022-10-20T01:42:32.723Z,17.33
2022-10-20T01:46:17.673Z,12.43
2022-10-20T01:49:59.899Z,13.75
2022-10-20T01:53:41.722Z,15.00
2022-10-20T01:57:37.597Z,17.10
2022-10-20T02:01:34.512Z,11.10
2022-10-20T02:05:46.230Z,17.42
2022-10-20T02:09:35.707Z,15.80
2022-10-20T02:13:20.041Z,16.83
2022-10-20T02:17:11.424Z,15.63
2022-10-20T02:20:57.067Z,14.02
2022-10-20T02:24:41.834Z,14.98
2022-10-20T02:28:25.643Z,17.73
2022-10-20T02:32:09.559Z,12.15
2022-10-20T02:35:56.863Z,16.30
2022-10-20T02:39:38.826Z,14.82
2022-10-20T02:43:20.683Z,21.38
2022-10-20T02:47:02.573Z,15.52
2022-10-20T02:50:44.441Z,22.63
2022-10-20T02:54:28.694Z,15.57
2022-10-20T02:58:10.838Z,14.73
2022-10-20T03:01:52.794Z,15.40
2022-10-20T03:05:39.431Z,13.00
2022-10-20T03:09:21.345Z,17.02
2022-10-20T03:13:03.682Z,12.43
2022-10-20T03:16:45.592Z,15.00
2022-10-20T03:20:27.373Z,13.98
2022-10-20T03:24:09.292Z,15.15
2022-10-20T03:27:51.327Z,15.85
2022-10-20T03:31:33.464Z,10.40
2022-10-20T03:35:15.547Z,16.63
2022-10-20T03:38:57.415Z,13.13
2022-10-20T03:42:39.362Z,12.23
2022-10-20T03:46:21.347Z,12.35
2022-10-20T03:53:47.227Z,12.98
2022-10-20T03:57:29.030Z,16.00
2022-10-20T04:01:15.434Z,10.95
2022-10-20T04:04:57.410Z,10.20
2022-10-20T04:08:39.423Z,22.48
2022-10-20T04:12:21.297Z,23.50
2022-10-20T04:16:03.407Z,24.52
2022-10-20T04:19:45.563Z,13.93
2022-10-20T04:23:27.443Z,10.70
2022-10-20T04:27:09.342Z,12.48
2022-10-20T04:30:51.197Z,12.95
2022-10-20T04:34:33.086Z,12.18
2022-10-20T04:38:14.928Z,13.85
2022-10-20T04:41:56.876Z,18.02
2022-10-20T04:45:38.692Z,11.43
2022-10-20T04:49:20.884Z,20.50
2022-10-20T04:53:02.700Z,15.68
2022-10-20T04:56:44.571Z,13.50
2022-10-20T05:00:26.520Z,12.25
2022-10-20T05:04:09.160Z,18.02
2022-10-20T05:07:50.982Z,12.90
2022-10-20T05:11:35.952Z,14.98
2022-10-20T05:15:17.827Z,10.90
2022-10-20T05:19:00.283Z,11.13
2022-10-20T05:22:42.146Z,16.45
2022-10-20T05:26:25.148Z,16.25
2022-10-20T05:30:07.518Z,13.52
2022-10-20T05:33:54.956Z,11.90
2022-10-20T05:37:36.745Z,15.70
2022-10-20T05:41:20.991Z,16.38
2022-10-20T05:45:03.130Z,17.52
2022-10-20T05:48:45.720Z,8.43
2022-10-20T05:52:27.534Z,10.25
2022-10-20T05:56:14.825Z,12.48
2022-10-20T05:59:56.651Z,13.10
2022-10-20T06:03:38.463Z,11.68
2022-10-20T06:07:20.306Z,12.38
2022-10-20T06:11:04.604Z,18.35
2022-10-20T06:14:46.438Z,15.25
2022-10-20T06:18:28.288Z,15.48
2022-10-20T06:22:10.304Z,12.60
2022-10-20T06:25:52.145Z,13.80
2022-10-20T06:29:33.985Z,18.63
2022-10-20T06:33:16.958Z,14.50
2022-10-20T06:36:58.843Z,11.10
2022-10-20T06:40:40.780Z,15.45
2022-10-20T06:44:24.186Z,11.68
2022-10-20T06:48:06.222Z,16.50
2022-10-20T06:51:48.233Z,9.73
2022-10-20T06:55:30.059Z,10.93
2022-10-20T06:59:11.875Z,10.75
2022-10-20T07:02:53.722Z,8.75
2022-10-20T07:06:40.807Z,9.38
2022-10-20T07:10:22.618Z,13.10
2022-10-20T07:14:04.955Z,7.70
2022-10-20T07:17:48.923Z,10.75
2022-10-20T07:21:35.806Z,10.30
2022-10-20T07:25:21.852Z,13.82
2022-10-20T07:29:04.518Z,8.07
2022-10-20T07:32:46.603Z,8.95
2022-10-20T07:36:34.938Z,8.38
2022-10-20T07:40:18.247Z,9.07
2022-10-20T07:44:00.407Z,9.35
2022-10-20T07:47:44.226Z,9.38
2022-10-20T07:51:31.059Z,11.10
2022-10-20T07:55:33.543Z,9.75
2022-10-20T07:59:15.097Z,10.00
2022-10-20T08:02:57.179Z,10.32
2022-10-20T08:06:39.683Z,9.10
2022-10-20T08:10:21.622Z,8.30
2022-10-20T08:14:03.558Z,7.47
2022-10-20T08:17:45.390Z,8.38
2022-10-20T08:21:27.392Z,9.05
2022-10-20T08:25:14.524Z,10.73
2022-10-20T08:28:56.384Z,7.32
2022-10-20T08:32:38.443Z,7.00
2022-10-20T08:36:21.349Z,8.90
2022-10-20T08:40:04.680Z,7.05
2022-10-20T08:43:48.399Z,6.35
2022-10-20T08:47:35.333Z,4.88
2022-10-20T08:51:23.737Z,6.88
2022-10-20T08:55:06.407Z,6.68
2022-10-20T08:58:48.278Z,6.07
2022-10-20T09:02:34.467Z,4.88
2022-10-20T09:06:17.097Z,7.45
2022-10-20T09:10:11.865Z,7.13
2022-10-20T09:13:54.211Z,7.07
2022-10-20T09:17:36.344Z,9.13
2022-10-20T09:21:21.857Z,5.18
2022-10-20T09:25:04.435Z,6.40
2022-10-20T09:29:11.938Z,9.27
2022-10-20T09:32:53.691Z,4.45
2022-10-20T09:36:38.618Z,6.47
2022-10-20T09:40:22.718Z,3.63
2022-10-20T09:44:08.910Z,3.58
2022-10-20T09:47:55.548Z,6.78
2022-10-20T09:55:34.062Z,4.53
2022-10-20T09:59:21.730Z,5.55
2022-10-20T10:03:21.715Z,4.05
2022-10-20T10:07:05.752Z,6.85
2022-10-20T10:11:03.504Z,4.63
2022-10-20T10:15:06.348Z,2.78
2022-10-20T10:18:56.137Z,5.03
2022-10-20T10:22:39.437Z,6.40
2022-10-20T10:26:40.180Z,7.50
2022-10-20T10:30:27.742Z,5.10
2022-10-20T10:34:12.443Z,5.03
2022-10-20T10:37:55.325Z,6.35
2022-10-20T10:42:04.794Z,6.53
2022-10-20T10:46:26.171Z,5.57
2022-10-20T10:50:31.408Z,4.68
2022-10-20T10:54:49.401Z,10.82
2022-10-20T10:58:40.082Z,7.38
2022-10-20T11:02:58.805Z,9.98
2022-10-20T11:06:57.113Z,8.57
2022-10-20T11:11:01.358Z,6.50
2022-10-20T11:15:04.984Z,7.68
2022-10-20T11:19:04.686Z,5.97
2022-10-20T11:22:52.678Z,4.85
2022-10-20T11:26:38.252Z,4.93
2022-10-20T11:30:22.185Z,6.97
2022-10-20T11:34:43.043Z,6.43
2022-10-20T11:38:41.787Z,7.70
2022-10-20T11:42:37.531Z,8.48
2022-10-20T11:46:27.910Z,14.02
2022-10-20T11:50:12.125Z,6.57
2022-10-20T11:54:09.131Z,10.63
2022-10-20T11:58:09.982Z,8.15
2022-10-20T12:02:29.459Z,5.03
2022-10-20T12:06:38.552Z,6.82
2022-10-20T12:10:26.165Z,9.95
2022-10-20T12:14:14.026Z,5.65
2022-10-20T12:18:03.544Z,8.23
2022-10-20T12:22:00.847Z,8.02
2022-10-20T12:25:42.812Z,6.57
2022-10-20T12:29:30.503Z,5.10
2022-10-20T12:33:17.281Z,2.63
2022-10-20T12:37:08.610Z,4.10
2022-10-20T12:40:58.028Z,5.20
2022-10-20T12:44:43.089Z,8.57
2022-10-20T12:48:25.757Z,3.40
2022-10-20T12:52:16.656Z,2.83
2022-10-20T12:56:10.448Z,1.02
2022-10-20T12:59:52.744Z,2.30
2022-10-20T13:03:48.760Z,1.88
2022-10-20T13:07:49.258Z,3.13
2022-10-20T13:11:40.979Z,1.15
2022-10-20T13:15:26.373Z,2.38
2022-10-20T13:19:13.880Z,1.80
2022-10-20T13:22:57.113Z,1.75
2022-10-20T13:26:50.686Z,1.83
2022-10-20T13:30:34.675Z,1.70
2022-10-20T13:34:28.767Z,1.75
2022-10-20T13:38:21.560Z,1.77
2022-10-20T13:42:35.782Z,2.20
2022-10-20T13:46:36.279Z,1.80
2022-10-20T13:50:21.389Z,5.28
2022-10-20T13:54:06.311Z,6.53
2022-10-20T13:58:08.465Z,2.20
2022-10-20T14:01:59.837Z,4.78
2022-10-20T14:05:41.699Z,3.25
2022-10-20T14:09:25.514Z,6.88
2022-10-20T14:13:14.424Z,5.95
2022-10-20T14:17:01.983Z,3.80
2022-10-20T14:20:59.210Z,5.78
2022-10-20T14:24:44.842Z,4.47
2022-10-20T14:28:32.698Z,3.63
2022-10-20T14:32:19.869Z,4.60
2022-10-20T14:36:02.810Z,5.28
2022-10-20T14:39:50.137Z,3.30
2022-10-20T14:43:43.203Z,2.65
2022-10-20T14:47:29.414Z,2.38
2022-10-20T14:51:34.481Z,5.57
2022-10-20T14:55:32.696Z,3.50
2022-10-20T14:59:27.136Z,4.00
2022-10-20T15:03:11.303Z,7.88
2022-10-20T15:07:14.541Z,6.47
2022-10-20T15:10:57.571Z,2.75
2022-10-20T15:14:40.426Z,4.18
2022-10-20T15:18:24.060Z,4.15
2022-10-20T15:22:11.151Z,4.68
2022-10-20T15:25:58.726Z,4.60
2022-10-20T15:29:48.935Z,6.93
2022-10-20T15:33:30.760Z,10.75
2022-10-20T15:37:12.559Z,6.07
2022-10-20T15:40:54.399Z,7.18
2022-10-20T15:44:36.238Z,8.38
2022-10-20T15:48:18.768Z,7.22
2022-10-20T15:52:00.584Z,5.28
2022-10-20T15:55:43.175Z,8.68
2022-10-20T15:59:25.040Z,5.88
2022-10-20T16:03:07.413Z,7.85
2022-10-20T16:06:52.440Z,5.35
2022-10-20T16:10:34.910Z,5.72
2022-10-20T16:14:16.720Z,5.25
2022-10-20T16:17:58.981Z,4.28
2022-10-20T16:21:41.447Z,5.85
2022-10-20T16:25:23.346Z,7.50
2022-10-20T16:29:05.318Z,6.13
2022-10-20T16:32:47.110Z,6.53
2022-10-20T16:36:28.954Z,9.15
2022-10-20T16:40:11.260Z,6.75
2022-10-20T16:43:55.241Z,4.28
2022-10-20T16:47:39.941Z,4.90
2022-10-20T16:51:22.043Z,4.68
2022-10-20T16:55:04.113Z,6.35
2022-10-20T16:58:45.990Z,4.78
2022-10-20T17:02:27.867Z,6.47
2022-10-20T17:06:11.022Z,5.78
2022-10-20T17:09:53.044Z,6.22
2022-10-20T17:13:36.296Z,9.23
2022-10-20T17:17:18.237Z,7.18
2022-10-20T17:21:00.534Z,7.68
2022-10-20T17:24:42.380Z,7.85
2022-10-20T17:28:24.162Z,5.30
2022-10-20T17:32:06.256Z,7.45
2022-10-20T17:35:49.170Z,11.95
2022-10-20T17:39:31.042Z,6.03
2022-10-20T17:43:12.882Z,4.78
2022-10-20T17:46:54.690Z,6.13
2022-10-20T17:50:37.119Z,7.35
2022-10-20T17:54:20.377Z,5.10
2022-10-20T17:58:05.671Z,5.00
2022-10-20T18:01:47.902Z,7.60
2022-10-20T18:05:29.783Z,4.22
2022-10-20T18:09:16.868Z,2.67
2022-10-20T18:12:58.873Z,4.63
2022-10-20T18:16:41.137Z,7.18
2022-10-20T18:20:22.942Z,6.75
2022-10-20T18:24:08.264Z,6.57
2022-10-20T18:27:50.150Z,5.03
2022-10-20T18:31:33.458Z,9.20
2022-10-20T18:35:15.452Z,4.53
2022-10-20T18:38:57.318Z,10.00
2022-10-20T18:42:39.434Z,6.93
2022-10-20T18:46:21.824Z,6.70
2022-10-20T18:50:03.934Z,9.38
2022-10-20T18:53:46.593Z,5.82
2022-10-20T18:57:33.090Z,7.43
2022-10-20T19:01:17.687Z,6.15
2022-10-20T19:04:59.599Z,11.07
2022-10-20T19:08:41.524Z,5.03
2022-10-20T19:12:23.699Z,6.57
2022-10-20T19:16:15.688Z,7.10
2022-10-20T19:19:57.503Z,5.30
2022-10-20T19:23:43.003Z,5.72
2022-10-20T19:27:27.235Z,4.75
2022-10-20T19:31:21.231Z,3.78
2022-10-20T19:35:04.264Z,10.52
2022-10-20T19:38:46.461Z,3.22
2022-10-20T19:42:28.274Z,5.35
2022-10-20T19:46:13.683Z,3.80
2022-10-20T19:49:55.608Z,5.15
2022-10-20T19:53:38.334Z,4.32
2022-10-20T19:57:20.163Z,1.92
2022-10-20T20:01:02.957Z,6.43
2022-10-20T20:04:44.782Z,3.92
2022-10-20T20:08:27.044Z,3.83
2022-10-20T20:12:09.170Z,5.10
2022-10-20T20:15:52.447Z,4.85
2022-10-20T20:19:34.345Z,4.20
2022-10-20T20:23:20.068Z,6.57
2022-10-20T20:27:07.775Z,6.28
2022-10-20T20:31:01.060Z,4.78
2022-10-20T20:34:42.886Z,5.45
2022-10-20T20:38:24.739Z,9.52
2022-10-20T20:42:06.544Z,4.35
2022-10-20T20:45:48.431Z,3.65
2022-10-20T20:49:30.448Z,4.43
2022-10-20T20:53:12.396Z,4.22
2022-10-20T20:56:54.298Z,9.18
2022-10-20T21:00:36.134Z,3.88
2022-10-20T21:04:18.100Z,3.90
2022-10-20T21:07:59.902Z,4.35
2022-10-20T21:11:43.001Z,3.50
2022-10-20T21:15:24.836Z,5.95
2022-10-20T21:19:10.832Z,4.55
2022-10-20T21:22:52.659Z,6.05
2022-10-20T21:26:34.562Z,3.90
2022-10-20T21:30:16.463Z,6.10
2022-10-20T21:34:01.072Z,7.97
2022-10-20T21:37:42.896Z,5.68
2022-10-20T21:41:27.327Z,7.25
2022-10-20T21:45:09.476Z,8.13
2022-10-20T21:48:54.611Z,6.55
2022-10-20T21:52:39.215Z,9.07
2022-10-20T21:56:21.218Z,9.63
2022-10-20T22:00:04.304Z,8.32
2022-10-20T22:03:47.433Z,7.38
2022-10-20T22:07:29.382Z,6.32
2022-10-20T22:11:16.831Z,7.63
2022-10-20T22:14:58.676Z,6.40
2022-10-20T22:18:40.725Z,7.07
2022-10-20T22:22:22.534Z,9.13
2022-10-20T22:26:05.385Z,7.80
2022-10-20T22:29:47.299Z,11.68
2022-10-20T22:33:29.135Z,7.55
2022-10-20T22:37:10.953Z,8.73
2022-10-20T22:40:52.764Z,6.65
2022-10-20T22:44:34.559Z,4.93
2022-10-20T22:48:16.383Z,9.32
2022-10-20T22:51:58.211Z,8.52
2022-10-20T22:55:40.020Z,7.85
2022-10-20T22:59:21.870Z,7.05
2022-10-20T23:03:03.750Z,6.82
2022-10-20T23:06:45.613Z,6.60
2022-10-20T23:10:27.548Z,6.32
2022-10-20T23:14:09.362Z,6.03
2022-10-20T23:17:51.159Z,7.68
2022-10-20T23:21:33.246Z,5.70
2022-10-20T23:25:15.275Z,6.60
2022-10-20T23:28:57.074Z,6.22
2022-10-20T23:32:38.879Z,8.77
2022-10-20T23:36:21.131Z,7.00
2022-10-20T23:40:02.983Z,5.35
2022-10-20T23:43:44.922Z,6.55
2022-10-20T23:47:26.792Z,5.63
2022-10-20T23:51:08.990Z,8.50
2022-10-20T23:54:50.755Z,7.43
2022-10-20T23:58:32.635Z,5.72
